ADDS METAR Data INFO
IDs: Format: Raw Decoded Include TAF

Data at: 1300 UTC 19 Jul 2018

KLPC 191256Z AUTO 00000KT 10SM OVC005 14/13 A2996 RMK AO2 SLP150 T01390128
KLPC 191248Z AUTO 17003KT 10SM OVC005 14/13 A2997 RMK AO2
KLPC 191156Z AUTO 00000KT 10SM OVC003 13/13 A2997 RMK AO2 SLP152 T01330128 10144 20133 55001
KLPC 191056Z AUTO 28003KT 6SM BR OVC003 13/13 A2996 RMK AO2 SLP150 T01330128
KLPC 190956Z AUTO 00000KT 5SM BR OVC003 14/13 A2997 RMK AO2 SLP152 T01390133
KLPC 190856Z AUTO 27005KT 7SM OVC003 14/13 A2997 RMK AO2 SLP153 T01390128 55003 TSNO
KLPC 190813Z AUTO 28004KT 9SM BKN003 14/13 A2998 RMK AO2
KLPC 190756Z AUTO 26005KT 10SM FEW003 14/13 A2997 RMK AO2 SLP153 T01390128 402220133
KLPC 190656Z AUTO 29004KT 10SM CLR 14/13 A2998 RMK AO2 SLP155 T01440133
KLPC 190556Z AUTO 26003KT 10SM CLR 14/13 A2998 RMK AO2 SLP157 T01440128 10183 20144 51007
KLPC 190456Z AUTO 26003KT 10SM CLR 14/13 A2998 RMK AO2 SLP156 T01440133
KLPC 190356Z AUTO 27004KT 10SM CLR 15/13 A2997 RMK AO2 SLP151 T01500133
KLPC 190256Z AUTO 27007KT 10SM CLR 16/13 A2996 RMK AO2 SLP150 T01560133 56004
KLPC 190156Z AUTO 27009KT 10SM CLR 17/14 A2996 RMK AO2 SLP150 T01670139
KLPC 190056Z AUTO 27012KT 10SM CLR 17/14 A2997 RMK AO2 SLP151 T01720139
KLPC 182356Z AUTO 27010KT 10SM CLR 18/14 A2998 RMK AO2 RAB21E34 SLP154 P0000 60000 T01830139 10222 20178 56009
KLPC 182256Z AUTO 27013KT 10SM CLR 19/14 A2998 RMK AO2 SLP157 T01940139
KLPC 182156Z AUTO 27014KT 10SM CLR 21/14 A2999 RMK AO2 SLP159 T02060144
KLPC 182056Z AUTO 27013KT 10SM SCT039 21/14 A3000 RMK AO2 SLP162 T02110144 56004
KLPC 181956Z AUTO 26012KT 10SM CLR 22/15 A3000 RMK AO2 SLP163 T02170150
KLPC 181856Z AUTO 26013KT 10SM CLR 21/15 A3001 RMK AO2 SLP165 T02110150
KLPC 181756Z AUTO 27012KT 10SM CLR 20/14 A3001 RMK AO2 SLP166 T02000144 10200 20133 58011
KLPC 181656Z AUTO 24005KT 10SM FEW010 18/14 A3003 RMK AO2 SLP171 T01830139
KLPC 181556Z AUTO 00000KT 10SM OVC006 16/13 A3004 RMK AO2 SLP177 T01560133
KLPC 181513Z AUTO 00000KT 10SM OVC006 14/13 A3005 RMK AO2
KLPC 181456Z AUTO 00000KT 10SM OVC004 13/13 A3004 RMK AO2 SLP177 T01330128 51014
KLPC 181356Z AUTO 00000KT 3SM BR OVC004 13/13 A3003 RMK AO2 SLP173 T01330128
KLPC 181256Z AUTO 00000KT 5SM BR OVC004 13/13 A3002 RMK AO2 SLP170 T01330128
KLPC 181156Z AUTO 26003KT 4SM BR OVC004 13/13 A3000 RMK AO2 SLP163 T01330128 10144 20133 53002
KLPC 181130Z AUTO 30004KT 7SM OVC004 13/13 A3000 RMK AO2
KLPC 181113Z AUTO 26004KT 2 1/2SM BR OVC004 13/13 A3000 RMK AO2
KLPC 181056Z AUTO 27005KT 8SM OVC004 13/13 A3000 RMK AO2 SLP161 T01330128
KLPC 180956Z AUTO 31004KT 3SM BR OVC004 14/13 A3000 RMK AO2 SLP162 T01390128
KLPC 180856Z AUTO 25004KT 10SM OVC004 14/13 A3000 RMK AO2 SLP161 T01390128 55003
KLPC 180832Z AUTO 22004KT 10SM OVC004 14/13 A2998 RMK AO2
KLPC 180756Z AUTO 00000KT 10SM OVC006 14/13 A2999 RMK AO2 SLP159 T01390128 402060133
KLPC 180656Z AUTO 00000KT 10SM OVC006 14/13 A3000 RMK AO2 SLP163 T01390128
KLPC 180556Z AUTO 30004KT 10SM OVC006 14/13 A3001 RMK AO2 SLP164 T01440128 10189 20144 53008
KLPC 180456Z AUTO 33004KT 10SM OVC006 14/13 A3000 RMK AO2 SLP161 T01440128
KLPC 180356Z AUTO 31006KT 10SM OVC008 15/13 A2998 RMK AO2 SLP157 T01500128
KLPC 180327Z AUTO 30006KT 10SM OVC008 16/13 A2998 RMK AO2
KLPC 180256Z AUTO 28010KT 10SM OVC010 16/13 A2998 RMK AO2 SLP156 T01560128 53001
KLPC 180239Z AUTO 29009KT 10SM BKN012 16/13 A2998 RMK AO2
KLPC 180156Z AUTO 26012KT 10SM CLR 17/13 A2997 RMK AO2 SLP152 T01670133